• Join FlightAware (Why Join?)
  • Login
  • US Flag 
12:57AM EDT


 

Airport Tracker/Info


-or-


 

Live Flight TrackerFlight Track Log ✈ SWA1810 ✈ 26-Apr-2013 ✈ KCMH - KPHX

Flight Track Log - Related Links

Times and Time Zones

All times are in EDT time to prevent confusion due to time zone crossing. See the SWA1810 flight status page for this flight to view local times or setup timezone preferences in your user account.

Time Position Orientation Groundspeed Altitude Reporting Facility
EDT Latitude Longitude Course Direction KTS MPH feet Rate Location/Type
12:58PM 39.9928 -82.8683 91° East 142 163 1,600  Level Indianapolis Center
12:59PM 39.9925 -82.8411 91° East 158 182 2,400 1,740 Climbing Indianapolis Center
01:00PM 39.9933 -82.7997 88° East 188 216 3,600 2,820 Climbing Indianapolis Center
01:00PM 39.9908 -82.7700 96° East 222 255 5,000 3,060 Climbing Indianapolis Center
01:01PM 39.9903 -82.7178 91° East 213 245 6,800 2,700 Climbing Indianapolis Center
01:02PM 40.0369 -82.7317 347° North 242 278 9,900 2,160 Climbing Indianapolis Center
01:03PM 40.0322 -82.8633 267° West 333 383 11,300 2,220 Climbing Indianapolis Center
01:04PM 40.0586 -82.9903 285° West 360 414 14,500 3,000 Climbing Indianapolis Center
01:05PM 40.0847 -83.1208 285° West 369 425 17,500 2,640 Climbing Indianapolis Center
01:06PM 40.1103 -83.2550 284° West 379 436 20,000 2,400 Climbing Indianapolis Center
01:07PM 40.1358 -83.3878 284° West 379 436 22,500 2,400 Climbing Indianapolis Center
01:08PM 40.1667 -83.5450 284° West 382 440 25,000 2,280 Climbing Indianapolis Center
01:09PM 40.1936 -83.6844 284° West 393 452 27,300 2,340 Climbing Indianapolis Center
01:10PM 40.2175 -83.8144 284° West 371 427 29,900 1,260 Climbing Indianapolis Center
01:11PM 40.2433 -83.9436 285° West 366 421 30,000 540 Climbing Indianapolis Center
01:12PM 40.2681 -84.0747 284° West 371 427 31,100 1,500 Climbing Indianapolis Center
01:13PM 40.2922 -84.2028 284° West 363 418 33,200 1,860 Climbing Indianapolis Center
01:14PM 40.3139 -84.3242 283° West 344 396 35,000 1,320 Climbing Indianapolis Center
01:15PM 40.3400 -84.4661 284° West 340 391 36,000 480 Climbing Indianapolis Center
01:16PM 40.3639 -84.5881 284° West 342 394 36,000  Level Indianapolis Center
01:17PM 40.3856 -84.7111 283° West 344 396 36,000 120 Level Indianapolis Center
01:18PM 40.4078 -84.8344 283° West 346 398 36,300 660 Climbing Indianapolis Center
01:19PM 40.4297 -84.9553 283° West 350 403 37,400 780 Climbing Indianapolis Center
01:20PM 40.4550 -85.0972 283° West 343 395 38,000 240 Climbing Indianapolis Center
01:21PM 40.4764 -85.2225 283° West 347 399 38,000  Level Indianapolis Center
01:22PM 40.4808 -85.2428 286° West 350 403 38,000  Level Chicago Center
01:23PM 40.5061 -85.3872 283° West 347 399 38,000  Level Chicago Center
01:24PM 40.5286 -85.5136 283° West 353 406 38,000  Level Chicago Center
01:25PM 40.5494 -85.6361 283° West 345 397 38,000  Level Chicago Center
01:26PM 40.5708 -85.7600 283° West 346 398 38,000  Level Chicago Center
01:27PM 40.5922 -85.8836 283° West 346 398 38,000  Level Chicago Center
01:28PM 40.6131 -86.0064 283° West 344 396 38,000  Level Chicago Center
01:29PM 40.6375 -86.1500 283° West 344 396 38,000  Level Chicago Center
01:30PM 40.6581 -86.2739 282° West 345 397 38,000  Level Chicago Center
01:31PM 40.6786 -86.3972 282° West 345 397 38,000  Level Chicago Center
01:32PM 40.6975 -86.5133 282° West 346 398 38,000  Level Chicago Center
01:33PM 40.7217 -86.6628 282° West 353 406 38,000  Level Chicago Center
01:34PM 40.7439 -86.7853 284° West 345 397 38,000  Level Chicago Center
01:35PM 40.7642 -86.9092 282° West 345 397 38,000  Level Chicago Center
01:36PM 40.7844 -87.0339 282° West 349 402 38,000  Level Chicago Center
01:37PM 40.8036 -87.1606 281° West 351 404 38,000  Level Chicago Center
01:38PM 40.8272 -87.3103 282° West 350 403 38,000  Level Chicago Center
01:39PM 40.8467 -87.4356 282° West 350 403 38,000  Level Chicago Center
01:40PM 40.8650 -87.5603 281° West 348 400 38,000  Level Chicago Center
01:41PM 40.8844 -87.6864 282° West 350 403 38,000  Level Chicago Center
01:42PM 40.9031 -87.8111 281° West 349 402 38,000  Level Chicago Center
01:43PM 40.9233 -87.9369 282° West 351 404 38,000  Level Chicago Center
01:44PM 40.9453 -88.0892 281° West 351 404 38,000  Level Chicago Center
01:45PM 40.9647 -88.2183 281° West 356 410 38,000  Level Chicago Center
01:46PM 40.9839 -88.3453 281° West 354 407 38,000  Level Chicago Center
01:47PM 41.0025 -88.4753 281° West 357 411 38,000  Level Chicago Center
01:48PM 41.0214 -88.6050 281° West 358 412 38,000  Level Chicago Center
01:49PM 41.0408 -88.7367 281° West 364 419 38,000  Level Chicago Center
01:50PM 41.0603 -88.8669 281° West 362 417 38,000  Level Chicago Center
01:52PM 41.0825 -89.0233 281° West 360 414 38,000  Level Chicago Center
01:53PM 41.1011 -89.1533 281° West 361 415 38,000  Level Chicago Center
01:54PM 41.1178 -89.2750 280° West 361 415 38,000  Level Chicago Center
01:55PM 41.1358 -89.4042 281° West 359 413 38,000  Level Chicago Center
01:56PM 41.1572 -89.5600 280° West 360 414 38,000  Level Chicago Center
01:57PM 41.1767 -89.6903 281° West 362 417 38,000  Level Chicago Center
01:58PM 41.1972 -89.8208 282° West 365 420 38,000  Level Chicago Center
01:59PM 41.2178 -89.9517 282° West 364 419 38,000  Level Chicago Center
02:00PM 41.2358 -90.0839 280° West 367 422 38,000  Level Chicago Center
02:01PM 41.2133 -90.2428 259° West 371 427 38,000  Level Chicago Center
02:02PM 41.1950 -90.3808 260° West 379 436 38,000  Level Chicago Center
02:03PM 41.1767 -90.5147 260° West 373 429 38,000  Level Chicago Center
02:04PM 41.1581 -90.6489 260° West 372 428 38,000  Level Chicago Center
02:05PM 41.1389 -90.7817 259° West 369 425 38,000  Level Chicago Center
02:06PM 41.1161 -90.9422 259° West 370 426 38,000  Level Chicago Center
02:07PM 41.0961 -91.0722 259° West 365 420 38,000  Level Chicago Center
02:08PM 41.0786 -91.2044 260° West 364 419 38,000  Level Chicago Center
02:09PM 41.0592 -91.3378 259° West 367 422 38,000  Level Chicago Center
02:10PM 41.0392 -91.4719 259° West 372 428 38,000  Level Chicago Center
02:11PM 41.0189 -91.6042 259° West 369 425 38,000  Level Chicago Center
02:12PM 40.9969 -91.7503 259° West 374 430 38,000  Level Chicago Center
02:13PM 40.9769 -91.8822 259° West 371 427 38,000  Level Chicago Center
02:14PM 40.9522 -92.0431 259° West 373 429 38,000  Level Chicago Center
02:15PM 40.9314 -92.1769 258° West 376 433 38,000  Level Chicago Center
02:16PM 40.9100 -92.3106 258° West 375 432 38,000  Level Chicago Center
02:17PM 40.8894 -92.4439 259° West 375 432 38,000  Level Chicago Center
02:18PM 40.8683 -92.5764 258° West 374 430 38,000  Level Chicago Center
02:19PM 40.8425 -92.7336 258° West 371 427 38,000  Level Chicago Center
02:20PM 40.8214 -92.8639 258° West 368 423 38,000  Level Chicago Center
02:22PM 40.8003 -92.9969 258° West 372 428 38,000  Level Chicago Center
02:23PM 40.7781 -93.1297 258° West 374 430 38,000  Level Chicago Center
02:24PM 40.7522 -93.2897 258° West 375 432 38,000  Level Chicago Center
02:25PM 40.7292 -93.4250 257° West 381 438 38,000  Level Chicago Center
02:26PM 40.7072 -93.5594 258° West 380 437 38,000  Level Chicago Center
02:27PM 40.6844 -93.6928 257° West 376 433 38,000  Level Chicago Center
02:28PM 40.6608 -93.8289 257° West 382 440 38,000  Level Chicago Center
02:29PM 40.6317 -93.9911 257° West 384 442 38,000  Level Minneapolis Center
02:30PM 40.6042 -94.1511 257° West 379 436 38,000  Level Minneapolis Center
02:31PM 40.5797 -94.2864 257° West 381 438 38,000  Level Minneapolis Center
02:32PM 40.5575 -94.4194 258° West 380 437 38,000  Level Minneapolis Center
02:33PM 40.5308 -94.5664 257° West 380 437 38,000  Level Minneapolis Center
02:34PM 40.5061 -94.7017 257° West 380 437 38,000  Level Minneapolis Center
02:35PM 40.4828 -94.8361 257° West 378 435 38,000  Level Minneapolis Center
02:36PM 40.4575 -94.9719 256° West 380 437 38,000  Level Minneapolis Center
02:37PM 40.4336 -95.1067 257° West 380 437 38,000  Level Minneapolis Center
02:39PM 40.3925 -95.3208 256° West 378 435 38,000  Level Minneapolis Center
02:40PM 40.3544 -95.4508 249° West 378 435 38,000  Level Minneapolis Center
02:41PM 40.3172 -95.5806 249° West 379 436 38,000  Level Minneapolis Center
02:42PM 40.2806 -95.7103 250° West 379 436 38,000  Level Minneapolis Center
02:43PM 40.2425 -95.8403 249° West 379 436 38,000  Level Minneapolis Center
02:44PM 40.2056 -95.9681 249° West 378 435 38,000  Level Minneapolis Center
02:45PM 40.1611 -96.1228 249° West 376 433 38,000  Level Minneapolis Center
02:46PM 40.1228 -96.2556 249° West 382 440 38,000  Level Minneapolis Center
02:47PM 40.0844 -96.3831 249° West 381 438 38,000  Level Minneapolis Center
02:48PM 40.0450 -96.5131 248° West 381 438 38,000  Level Minneapolis Center
02:49PM 40.0064 -96.6425 249° West 382 440 38,000  Level Minneapolis Center
02:50PM 39.9681 -96.7744 249° West 384 442 38,000  Level Minneapolis Center
02:51PM 39.9203 -96.9314 248° West 386 444 38,000  Level Minneapolis Center
02:52PM 39.8806 -97.0642 249° West 389 448 38,000  Level Minneapolis Center
02:53PM 39.8644 -97.1172 248° West 391 450 38,000  Level Kansas City Center
02:53PM 39.8411 -97.1967 249° West 390 449 38,000  Level Minneapolis Center
02:54PM 39.8003 -97.3306 248° West 394 453 38,000  Level Minneapolis Center
02:55PM 39.7592 -97.4628 248° West 395 455 38,000  Level Minneapolis Center
02:56PM 39.7197 -97.5933 249° West 394 453 38,000  Level Minneapolis Center
02:57PM 39.6778 -97.7247 248° West 392 451 38,000  Level Minneapolis Center
02:59PM 39.6153 -97.9244 248° West 396 456 38,000  Level Kansas City Center
03:00PM 39.5744 -98.0558 248° West 396 456 38,000  Level Kansas City Center
03:00PM 39.5467 -98.1456 248° West 395 455 38,000  Level Denver Center
03:02PM 39.4892 -98.3281 248° West 392 451 38,000  Level Denver Center
03:03PM 39.4475 -98.4586 248° West 392 451 38,000  Level Denver Center
03:04PM 39.4056 -98.5892 247° West 393 452 38,000  Level Denver Center
03:05PM 39.3644 -98.7189 248° West 391 450 38,000  Level Denver Center
03:06PM 39.3231 -98.8486 248° West 391 450 38,000  Level Denver Center
03:07PM 39.2778 -98.9867 247° West 390 449 38,000  Level Denver Center
03:09PM 39.1844 -99.2722 247° West 393 452 38,000  Level Kansas City Center
03:10PM 39.1406 -99.4031 247° West 396 456 38,000  Level Kansas City Center
03:11PM 39.0983 -99.5328 247° West 395 455 38,000  Level Kansas City Center
03:12PM 39.0539 -99.6667 247° West 395 455 38,000  Level Kansas City Center
03:13PM 39.0061 -99.8111 247° West 395 455 38,000  Level Kansas City Center
03:14PM 38.9647 -99.9356 247° West 395 455 38,000  Level Kansas City Center
03:15PM 38.9161 -100.0783 246° West 393 452 38,000  Level Kansas City Center
03:16PM 38.8756 -100.2008 247° West 391 450 38,000  Level Kansas City Center
03:17PM 38.8269 -100.3428 246° West 391 450 38,000  Level Kansas City Center
03:18PM 38.7850 -100.4658 246° West 393 452 38,000  Level Kansas City Center
03:19PM 38.7417 -100.5897 246° West 397 457 38,000  Level Kansas City Center
03:20PM 38.6925 -100.7336 246° West 397 457 38,000  Level Kansas City Center
03:21PM 38.6494 -100.8572 246° West 398 458 38,000  Level Kansas City Center
03:23PM 38.5997 -101.0017 246° West 399 459 38,000  Level Kansas City Center
03:24PM 38.5564 -101.1244 246° West 397 457 38,000  Level Kansas City Center
03:25PM 38.5008 -101.2833 246° West 393 452 38,000  Level Denver Center
03:26PM 38.4369 -101.3881 232° Southwest 394 453 38,000  Level Denver Center
03:27PM 38.3650 -101.5083 233° Southwest 386 444 38,000  Level Denver Center
03:28PM 38.3247 -101.6281 247° West 386 444 38,000  Level Denver Center
03:29PM 38.2756 -101.7681 246° West 388 447 38,000  Level Denver Center
03:30PM 38.2331 -101.8889 246° West 392 451 38,000  Level Denver Center
03:31PM 38.1831 -102.0283 246° West 390 449 38,000  Level Denver Center
03:32PM 38.1408 -102.1494 246° West 391 450 38,000  Level Denver Center
03:33PM 38.0908 -102.2906 246° West 392 451 38,000  Level Denver Center
03:34PM 38.0475 -102.4125 246° West 397 457 38,000  Level Denver Center
03:35PM 37.9978 -102.5508 246° West 400 460 38,000  Level Denver Center
03:36PM 37.9522 -102.6761 245° Southwest 396 456 38,000  Level Denver Center
03:37PM 37.9033 -102.8119 246° West 391 450 38,000  Level Denver Center
03:38PM 37.8597 -102.9314 245° Southwest 392 451 38,000  Level Denver Center
03:39PM 37.8086 -103.0725 245° Southwest 394 453 38,000  Level Denver Center
03:40PM 37.7644 -103.1939 245° Southwest 397 457 38,000  Level Denver Center
03:41PM 37.7203 -103.3156 245° Southwest 398 458 38,000  Level Denver Center
03:42PM 37.6675 -103.4567 245° Southwest 398 458 38,000  Level Denver Center
03:43PM 37.6222 -103.5781 245° Southwest 400 460 38,000  Level Denver Center
03:44PM 37.5697 -103.7194 245° Southwest 398 458 38,000  Level Denver Center
03:45PM 37.5242 -103.8406 245° Southwest 397 457 38,000  Level Denver Center
03:46PM 37.4750 -103.9683 244° Southwest 396 456 38,000  Level Denver Center
03:47PM 37.4294 -104.0875 244° Southwest 402 463 38,000  Level Denver Center
03:48PM 37.3764 -104.2286 245° Southwest 398 458 38,000  Level Denver Center
03:49PM 37.3225 -104.3683 244° Southwest 397 457 38,000  Level Denver Center
03:50PM 37.2778 -104.4864 245° Southwest 394 453 38,000  Level Denver Center
03:52PM 37.2256 -104.6219 244° Southwest 387 445 38,000  Level Denver Center
03:53PM 37.1808 -104.7389 244° Southwest 387 445 38,000  Level Denver Center
03:54PM 37.1292 -104.8750 245° Southwest 388 447 38,000  Level Denver Center
03:55PM 37.0764 -105.0094 244° Southwest 387 445 38,000  Level Denver Center
03:56PM 37.0228 -105.1433 243° Southwest 385 443 38,000  Level Denver Center
03:57PM 36.9772 -105.2592 244° Southwest 387 445 38,000  Level Denver Center
03:58PM 36.9278 -105.3939 245° Southwest 380 437 38,000  Level Denver Center
03:59PM 36.8794 -105.5139 243° Southwest 388 447 38,000  Level Denver Center
03:59PM 36.8583 -105.5719 246° West 391 450 38,000  Level Albuquerque Center
04:00PM 36.8258 -105.6447 241° Southwest 391 450 38,000  Level Denver Center
04:01PM 36.7797 -105.7617 244° Southwest 392 451 38,000  Level Denver Center
04:02PM 36.7297 -105.8867 244° Southwest 390 449 38,000  Level Denver Center
04:03PM 36.6797 -106.0069 243° Southwest 389 448 38,000  Level Denver Center
04:04PM 36.6317 -106.1278 244° Southwest 390 449 38,000  Level Denver Center
04:05PM 36.6069 -106.1928 245° Southwest 392 451 38,000  Level Albuquerque Center
04:06PM 36.5597 -106.3078 243° Southwest 391 450 38,000  Level Albuquerque Center
04:07PM 36.5064 -106.4431 244° Southwest 389 448 38,000  Level Albuquerque Center
04:08PM 36.4586 -106.5586 243° Southwest 393 452 38,000  Level Albuquerque Center
04:08PM 36.4281 -106.6336 243° Southwest 389 448 38,000  Level Denver Center
04:09PM 36.3714 -106.7675 242° Southwest 391 450 38,000  Level Denver Center
04:10PM 36.3556 -106.8083 244° Southwest 392 451 38,000  Level Albuquerque Center
04:11PM 36.2997 -106.9414 243° Southwest 390 449 38,000  Level Albuquerque Center
04:12PM 36.2522 -107.0589 243° Southwest 396 456 38,000  Level Albuquerque Center
04:13PM 36.1958 -107.1933 243° Southwest 395 455 38,000  Level Albuquerque Center
04:14PM 36.1464 -107.3092 242° Southwest 396 456 38,000  Level Albuquerque Center
04:15PM 36.0908 -107.4439 243° Southwest 394 453 38,000  Level Albuquerque Center
04:16PM 36.0422 -107.5589 242° Southwest 394 453 38,000  Level Albuquerque Center
04:17PM 35.9836 -107.6661 236° Southwest 392 451 38,000  Level Albuquerque Center
04:18PM 35.9144 -107.7906 236° Southwest 393 452 38,000  Level Albuquerque Center
04:19PM 35.8553 -107.8953 235° Southwest 390 449 38,000  Level Albuquerque Center
04:20PM 35.7853 -108.0183 235° Southwest 391 450 38,000  Level Albuquerque Center
04:21PM 35.7247 -108.1244 235° Southwest 393 452 38,000  Level Albuquerque Center
04:22PM 35.6536 -108.2494 235° Southwest 395 455 38,000  Level Albuquerque Center
04:23PM 35.5906 -108.3575 234° Southwest 401 461 38,000  Level Albuquerque Center
04:24PM 35.5183 -108.4831 235° Southwest 402 463 38,000  Level Albuquerque Center
04:25PM 35.4553 -108.5911 234° Southwest 403 464 38,000  Level Albuquerque Center
04:26PM 35.3942 -108.6986 235° Southwest 402 463 38,000  Level Albuquerque Center
04:27PM 35.3203 -108.8242 234° Southwest 403 464 38,000  Level Albuquerque Center
04:28PM 35.2583 -108.9322 235° Southwest 403 464 38,000  Level Albuquerque Center
04:29PM 35.1842 -109.0553 234° Southwest 402 463 38,000  Level Albuquerque Center
04:30PM 35.1219 -109.1631 235° Southwest 403 464 38,000  Level Albuquerque Center
04:31PM 35.0497 -109.2869 235° Southwest 400 460 38,000 -120 Level Albuquerque Center
04:32PM 34.9881 -109.3922 234° Southwest 398 458 37,800 -660 Descending Albuquerque Center
04:33PM 34.9119 -109.5131 232° Southwest 400 460 36,700 -900 Descending Albuquerque Center
04:35PM 34.8506 -109.6161 234° Southwest 395 455 36,000 -480 Descending Albuquerque Center
04:36PM 34.7783 -109.7375 234° Southwest 395 455 35,800 -540 Descending Albuquerque Center
04:37PM 34.7158 -109.8433 234° Southwest 398 458 34,900 -900 Descending Albuquerque Center
04:38PM 34.6700 -109.9572 244° Southwest 392 451 34,000 -480 Descending Albuquerque Center
04:39PM 34.6200 -110.0967 246° West 401 461 34,000  Level Albuquerque Center
04:40PM 34.5800 -110.2158 248° West 400 460 34,000 -240 Level Albuquerque Center
04:41PM 34.5258 -110.3431 243° Southwest 386 444 33,600 -1,080 Descending Albuquerque Center
04:42PM 34.4878 -110.4531 247° West 391 450 31,800 -2,160 Descending Albuquerque Center
04:43PM 34.4369 -110.5908 246° West 379 436 29,200 -2,280 Descending Albuquerque Center
04:44PM 34.3922 -110.7042 244° Southwest 375 432 27,100 -2,040 Descending Albuquerque Center
04:45PM 34.3428 -110.8131 241° Southwest 373 429 25,000 -2,040 Descending Albuquerque Center
04:46PM 34.2728 -110.9011 226° Southwest 365 420 22,900 -1,980 Descending Albuquerque Center
04:47PM 34.2047 -110.9886 227° Southwest 360 414 20,900 -1,980 Descending Albuquerque Center
04:48PM 34.1361 -111.0775 227° Southwest 359 413 18,900 -1,800 Descending Albuquerque Center
04:49PM 34.0672 -111.1664 227° Southwest 362 417 17,200 -2,040 Descending Albuquerque Center
04:50PM 33.9878 -111.2683 227° Southwest 351 404 14,800 -2,160 Descending Albuquerque Center
04:51PM 33.9228 -111.3514 227° Southwest 342 394 12,800 -1,560 Descending Albuquerque Center
04:52PM 33.8569 -111.4278 224° Southwest 327 376 11,600 -1,080 Descending Albuquerque Center
04:53PM 33.7853 -111.4869 214° Southwest 312 359 10,600 -900 Descending Albuquerque Center
04:54PM 33.7219 -111.5422 216° Southwest 283 326 9,800 -900 Descending Albuquerque Center
04:55PM 33.6639 -111.5881 213° Southwest 251 289 8,800 -900 Descending Albuquerque Center
04:56PM 33.6000 -111.6167 200° South 243 280 8,000 -1,080 Descending Albuquerque Center
04:57PM 33.5256 -111.6542 203° Southwest 241 277 6,600 -1,140 Descending Albuquerque Center
04:58PM 33.4947 -111.7228 242° Southwest 236 272 5,700 -1,020 Descending Albuquerque Center
04:59PM 33.4700 -111.7961 248° West 236 272 4,500 -1,200 Descending Albuquerque Center
05:00PM 33.4458 -111.8656 247° West 227 261 3,300 -1,080 Descending Albuquerque Center
05:01PM 33.4408 -111.9211 264° West 169 194 2,300 -900 Descending Albuquerque Center
05:02PM 33.4414 -111.9669 271° West 141 162 1,500 -780 Descending Albuquerque Center
05:04PM 33.4343 -112.0116 270° West  Level Estimated
05:11PM 33.4343 -112.0116 90° East  Level Estimated